Marshville, North Carolina
Current Conditions -  °F | °C
As of 4:53 PM on Monday 22 Dec 2014 (Local Time) from KEQY Reporting Station
Light Rain Light Rain  
Wind Chill: 32°   Ceiling: 200
Heat Index: 39°   Visibility: 1.2mi
Dew Point: 37°   Wind: 12mph
Humidity: 93%   Direction: 30°NNE
Pressure: 30.02"   Gusts: NA
Location:  34.99°N, 80.37°W
Report Text: KEQY 222153Z AUTO 03010KT 1 1/4SM -RA BR OVC002 04/03 A3002 RMK AO2 RAB51 SLP184 P0000 T00390028
Loading
Personal Weather Stations






























Interactive Weather Map New forecast layout! Learn more

10-Day Weather Forecast

Advertisements
Track Severe Weather on mobile